createdAt,value
2023-03-23T16:00:18.641Z,20.60
2023-03-23T16:05:27.064Z,19.20
2023-03-23T16:10:32.522Z,22.40
2023-03-23T16:15:40.654Z,22.00
2023-03-23T16:20:49.011Z,20.70
2023-03-23T16:25:57.309Z,14.80
2023-03-23T16:31:12.063Z,17.20
2023-03-23T16:36:14.496Z,15.50
2023-03-23T16:41:16.817Z,12.70
2023-03-23T16:46:18.912Z,16.90
2023-03-23T16:51:23.332Z,16.00
2023-03-23T16:58:09.027Z,22.20
2023-03-23T17:04:35.517Z,21.10
2023-03-23T17:10:57.304Z,18.50
2023-03-23T17:17:19.224Z,16.40
2023-03-23T17:22:59.731Z,20.00
2023-03-23T17:29:12.363Z,25.00
2023-03-23T17:35:37.449Z,25.00
2023-03-23T17:40:45.901Z,20.70
2023-03-23T17:46:01.186Z,22.70
2023-03-23T17:51:30.964Z,28.00
2023-03-23T17:56:58.000Z,21.80
2023-03-23T18:02:27.797Z,24.10
2023-03-23T18:07:53.353Z,24.10
2023-03-23T18:13:32.938Z,24.60
2023-03-23T18:18:38.766Z,26.50
2023-03-23T18:23:59.551Z,25.20
2023-03-23T18:30:05.938Z,23.70
2023-03-23T18:35:48.040Z,20.20
2023-03-23T18:41:49.511Z,24.30
2023-03-23T18:47:11.301Z,24.30
2023-03-23T18:52:14.376Z,27.30
2023-03-23T18:58:16.061Z,30.10
2023-03-23T19:04:37.243Z,42.50
2023-03-23T19:10:09.329Z,38.20
2023-03-23T19:15:11.568Z,39.10
2023-03-23T19:20:37.460Z,37.30
2023-03-23T19:26:05.179Z,43.40
2023-03-23T19:31:08.140Z,44.30
2023-03-23T19:36:19.686Z,45.10
2023-03-23T19:49:09.719Z,42.20
2023-03-23T19:55:30.969Z,39.00
2023-03-23T20:01:59.862Z,36.80
2023-03-23T20:08:21.450Z,37.10
2023-03-23T20:13:50.242Z,29.30
2023-03-23T20:18:53.644Z,28.80
2023-03-23T20:23:57.783Z,24.30
2023-03-23T20:29:14.690Z,24.00
2023-03-23T20:34:43.843Z,21.70
2023-03-23T20:40:08.969Z,21.80
2023-03-23T20:45:51.626Z,15.60
2023-03-23T20:51:17.034Z,16.20
2023-03-23T20:56:53.745Z,19.40
2023-03-23T21:02:47.006Z,18.70
2023-03-23T21:08:39.565Z,16.10
2023-03-23T21:14:10.190Z,19.80
2023-03-23T21:19:16.752Z,16.50
2023-03-23T21:24:30.987Z,16.30
2023-03-23T21:29:34.205Z,15.00
2023-03-23T21:34:46.279Z,17.40
2023-03-23T21:40:12.802Z,18.40
2023-03-23T21:45:25.200Z,14.70
2023-03-23T21:50:44.579Z,16.00
2023-03-23T21:56:13.940Z,16.10
2023-03-23T22:01:33.906Z,12.10
2023-03-23T22:06:48.090Z,12.90
2023-03-23T22:12:09.193Z,11.90
2023-03-23T22:17:37.357Z,12.00
2023-03-23T22:23:10.305Z,12.50
2023-03-23T22:28:28.720Z,14.90
2023-03-23T22:34:15.853Z,19.00
2023-03-23T22:40:45.750Z,15.40
2023-03-23T22:47:49.949Z,15.30
2023-03-23T22:53:55.591Z,13.00
2023-03-23T22:59:24.856Z,15.20
2023-03-23T23:05:14.071Z,10.10
2023-03-23T23:11:02.757Z,12.00
2023-03-23T23:17:21.437Z,11.00
2023-03-23T23:24:28.405Z,13.20
2023-03-23T23:31:32.475Z,10.00
2023-03-23T23:38:32.835Z,13.00
2023-03-23T23:44:41.703Z,11.60
2023-03-23T23:51:02.224Z,15.80
2023-03-23T23:57:25.395Z,10.90
